sensor_id;sensor_type;location;lat;lon;timestamp;P1;durP1;ratioP1;P2;durP2;ratioP2
29236;SDS011;16266;50.866;4.398;2024-02-04T00:01:03;1999.90;;;999.90;;
29236;SDS011;16266;50.866;4.398;2024-02-04T00:03:29;1999.90;;;999.90;;
29236;SDS011;16266;50.866;4.398;2024-02-04T00:05:54;1999.90;;;999.90;;
29236;SDS011;16266;50.866;4.398;2024-02-04T00:08:20;1999.90;;;999.90;;
29236;SDS011;16266;50.866;4.398;2024-02-04T00:10:46;1999.90;;;999.90;;
29236;SDS011;16266;50.866;4.398;2024-02-04T00:13:12;1999.90;;;999.90;;
29236;SDS011;16266;50.866;4.398;2024-02-04T00:15:38;1999.90;;;999.90;;
29236;SDS011;16266;50.866;4.398;2024-02-04T00:18:03;1999.90;;;999.90;;
29236;SDS011;16266;50.866;4.398;2024-02-04T00:20:29;1999.90;;;999.90;;
29236;SDS011;16266;50.866;4.398;2024-02-04T00:22:57;1999.90;;;999.90;;
29236;SDS011;16266;50.866;4.398;2024-02-04T00:25:23;1999.90;;;999.90;;
29236;SDS011;16266;50.866;4.398;2024-02-04T00:27:50;1999.90;;;999.90;;
29236;SDS011;16266;50.866;4.398;2024-02-04T00:30:15;1999.90;;;999.90;;
29236;SDS011;16266;50.866;4.398;2024-02-04T00:32:41;1999.90;;;999.90;;
29236;SDS011;16266;50.866;4.398;2024-02-04T00:35:06;1999.90;;;999.90;;
29236;SDS011;16266;50.866;4.398;2024-02-04T00:37:32;1999.90;;;999.90;;
29236;SDS011;16266;50.866;4.398;2024-02-04T00:39:58;1999.90;;;999.90;;
29236;SDS011;16266;50.866;4.398;2024-02-04T00:42:24;1999.90;;;999.90;;
29236;SDS011;16266;50.866;4.398;2024-02-04T00:44:49;1999.90;;;999.90;;
29236;SDS011;16266;50.866;4.398;2024-02-04T00:47:15;1999.90;;;999.90;;
29236;SDS011;16266;50.866;4.398;2024-02-04T00:49:41;1999.90;;;999.90;;
29236;SDS011;16266;50.866;4.398;2024-02-04T00:52:06;1999.90;;;999.90;;
29236;SDS011;16266;50.866;4.398;2024-02-04T00:54:32;1999.90;;;999.90;;
29236;SDS011;16266;50.866;4.398;2024-02-04T00:56:58;1999.90;;;999.90;;
29236;SDS011;16266;50.866;4.398;2024-02-04T00:59:25;1999.90;;;999.90;;
29236;SDS011;16266;50.866;4.398;2024-02-04T01:01:50;1999.90;;;999.90;;
29236;SDS011;16266;50.866;4.398;2024-02-04T01:04:16;1999.90;;;999.90;;
29236;SDS011;16266;50.866;4.398;2024-02-04T01:06:41;1999.90;;;999.90;;
29236;SDS011;16266;50.866;4.398;2024-02-04T01:09:07;1999.90;;;999.90;;
29236;SDS011;16266;50.866;4.398;2024-02-04T01:11:33;1999.90;;;999.90;;
29236;SDS011;16266;50.866;4.398;2024-02-04T01:13:59;1999.90;;;999.90;;
29236;SDS011;16266;50.866;4.398;2024-02-04T01:16:24;1999.90;;;999.90;;
29236;SDS011;16266;50.866;4.398;2024-02-04T01:18:51;1999.90;;;999.90;;
29236;SDS011;16266;50.866;4.398;2024-02-04T01:21:17;1999.90;;;999.90;;
29236;SDS011;16266;50.866;4.398;2024-02-04T01:23:42;1999.90;;;999.90;;
29236;SDS011;16266;50.866;4.398;2024-02-04T01:26:08;1999.90;;;999.90;;
29236;SDS011;16266;50.866;4.398;2024-02-04T01:28:34;1999.90;;;999.90;;
29236;SDS011;16266;50.866;4.398;2024-02-04T01:31:00;1999.90;;;999.90;;
29236;SDS011;16266;50.866;4.398;2024-02-04T01:33:26;1999.90;;;999.90;;
29236;SDS011;16266;50.866;4.398;2024-02-04T01:35:51;1999.90;;;999.90;;
29236;SDS011;16266;50.866;4.398;2024-02-04T01:38:17;1999.90;;;999.90;;
29236;SDS011;16266;50.866;4.398;2024-02-04T01:40:43;1999.90;;;999.90;;
29236;SDS011;16266;50.866;4.398;2024-02-04T01:43:11;1999.90;;;999.90;;
29236;SDS011;16266;50.866;4.398;2024-02-04T01:45:37;1999.90;;;999.90;;
29236;SDS011;16266;50.866;4.398;2024-02-04T01:48:02;1999.90;;;999.90;;
29236;SDS011;16266;50.866;4.398;2024-02-04T01:50:30;1999.90;;;999.90;;
29236;SDS011;16266;50.866;4.398;2024-02-04T01:52:59;1999.90;;;999.90;;
29236;SDS011;16266;50.866;4.398;2024-02-04T01:55:25;1999.90;;;999.90;;
29236;SDS011;16266;50.866;4.398;2024-02-04T01:57:50;1999.90;;;999.90;;
29236;SDS011;16266;50.866;4.398;2024-02-04T02:00:16;1999.90;;;999.90;;
29236;SDS011;16266;50.866;4.398;2024-02-04T02:02:43;1999.90;;;999.90;;
29236;SDS011;16266;50.866;4.398;2024-02-04T02:05:11;1999.90;;;999.90;;
29236;SDS011;16266;50.866;4.398;2024-02-04T02:07:37;1999.90;;;999.90;;
29236;SDS011;16266;50.866;4.398;2024-02-04T02:10:02;1999.90;;;999.90;;
29236;SDS011;16266;50.866;4.398;2024-02-04T02:12:34;1999.90;;;999.90;;
29236;SDS011;16266;50.866;4.398;2024-02-04T02:15:18;1999.90;;;999.90;;
29236;SDS011;16266;50.866;4.398;2024-02-04T02:17:51;1999.90;;;999.90;;
29236;SDS011;16266;50.866;4.398;2024-02-04T02:20:31;1999.90;;;999.90;;
29236;SDS011;16266;50.866;4.398;2024-02-04T02:25:32;1999.90;;;999.90;;
29236;SDS011;16266;50.866;4.398;2024-02-04T02:28:00;1999.90;;;999.90;;
29236;SDS011;16266;50.866;4.398;2024-02-04T02:30:26;1999.90;;;999.90;;
29236;SDS011;16266;50.866;4.398;2024-02-04T02:32:52;1999.90;;;999.90;;
29236;SDS011;16266;50.866;4.398;2024-02-04T02:35:18;1999.90;;;999.90;;
29236;SDS011;16266;50.866;4.398;2024-02-04T02:42:48;1999.90;;;999.90;;
29236;SDS011;16266;50.866;4.398;2024-02-04T02:45:16;1999.90;;;999.90;;
29236;SDS011;16266;50.866;4.398;2024-02-04T02:47:44;1999.90;;;999.90;;
29236;SDS011;16266;50.866;4.398;2024-02-04T02:50:12;1999.90;;;999.90;;
29236;SDS011;16266;50.866;4.398;2024-02-04T02:52:38;1999.90;;;999.90;;
29236;SDS011;16266;50.866;4.398;2024-02-04T02:55:04;1999.90;;;999.90;;
29236;SDS011;16266;50.866;4.398;2024-02-04T02:57:30;1999.90;;;999.90;;
29236;SDS011;16266;50.866;4.398;2024-02-04T02:59:56;1999.90;;;999.90;;
29236;SDS011;16266;50.866;4.398;2024-02-04T03:02:22;1999.90;;;999.90;;
29236;SDS011;16266;50.866;4.398;2024-02-04T03:04:49;1999.90;;;999.90;;
29236;SDS011;16266;50.866;4.398;2024-02-04T03:07:14;1999.90;;;999.90;;
29236;SDS011;16266;50.866;4.398;2024-02-04T03:09:40;1999.90;;;999.90;;
29236;SDS011;16266;50.866;4.398;2024-02-04T03:12:06;1999.90;;;999.90;;
29236;SDS011;16266;50.866;4.398;2024-02-04T03:14:31;1999.90;;;999.90;;
29236;SDS011;16266;50.866;4.398;2024-02-04T03:16:58;1999.90;;;999.90;;
29236;SDS011;16266;50.866;4.398;2024-02-04T03:19:23;1999.90;;;999.90;;
29236;SDS011;16266;50.866;4.398;2024-02-04T03:21:49;1999.90;;;999.90;;
29236;SDS011;16266;50.866;4.398;2024-02-04T03:24:14;1999.90;;;999.90;;
29236;SDS011;16266;50.866;4.398;2024-02-04T03:26:40;1999.90;;;999.90;;
29236;SDS011;16266;50.866;4.398;2024-02-04T03:29:06;1999.90;;;999.90;;
29236;SDS011;16266;50.866;4.398;2024-02-04T03:31:32;1999.90;;;999.90;;
29236;SDS011;16266;50.866;4.398;2024-02-04T03:33:58;1999.90;;;999.90;;
29236;SDS011;16266;50.866;4.398;2024-02-04T03:36:24;1999.90;;;999.90;;
29236;SDS011;16266;50.866;4.398;2024-02-04T03:38:50;1999.90;;;999.90;;
29236;SDS011;16266;50.866;4.398;2024-02-04T03:41:16;1999.90;;;999.90;;
29236;SDS011;16266;50.866;4.398;2024-02-04T03:43:42;1999.90;;;999.90;;
29236;SDS011;16266;50.866;4.398;2024-02-04T03:46:08;1999.90;;;999.90;;
29236;SDS011;16266;50.866;4.398;2024-02-04T03:48:33;1999.90;;;999.90;;
29236;SDS011;16266;50.866;4.398;2024-02-04T03:51:00;1999.90;;;999.90;;
29236;SDS011;16266;50.866;4.398;2024-02-04T03:53:26;1999.90;;;999.90;;
29236;SDS011;16266;50.866;4.398;2024-02-04T03:55:52;1999.90;;;999.90;;
29236;SDS011;16266;50.866;4.398;2024-02-04T03:58:19;1999.90;;;999.90;;
29236;SDS011;16266;50.866;4.398;2024-02-04T04:00:45;1999.90;;;999.90;;
29236;SDS011;16266;50.866;4.398;2024-02-04T04:03:10;1999.90;;;999.90;;
29236;SDS011;16266;50.866;4.398;2024-02-04T04:05:36;1999.90;;;999.90;;
29236;SDS011;16266;50.866;4.398;2024-02-04T04:08:02;1999.90;;;999.90;;
29236;SDS011;16266;50.866;4.398;2024-02-04T04:10:27;1999.90;;;999.90;;
29236;SDS011;16266;50.866;4.398;2024-02-04T04:12:53;1999.90;;;999.90;;
29236;SDS011;16266;50.866;4.398;2024-02-04T04:15:19;1999.90;;;999.90;;
29236;SDS011;16266;50.866;4.398;2024-02-04T04:17:44;1999.90;;;999.90;;
29236;SDS011;16266;50.866;4.398;2024-02-04T04:20:11;1999.90;;;999.90;;
29236;SDS011;16266;50.866;4.398;2024-02-04T04:22:38;1999.90;;;999.90;;
29236;SDS011;16266;50.866;4.398;2024-02-04T04:25:07;1999.90;;;999.90;;
29236;SDS011;16266;50.866;4.398;2024-02-04T04:27:33;1999.90;;;999.90;;
29236;SDS011;16266;50.866;4.398;2024-02-04T04:29:58;1999.90;;;999.90;;
29236;SDS011;16266;50.866;4.398;2024-02-04T04:32:24;1999.90;;;999.90;;
29236;SDS011;16266;50.866;4.398;2024-02-04T04:34:50;1999.90;;;999.90;;
29236;SDS011;16266;50.866;4.398;2024-02-04T04:37:16;1999.90;;;999.90;;
29236;SDS011;16266;50.866;4.398;2024-02-04T04:39:42;1999.90;;;999.90;;
29236;SDS011;16266;50.866;4.398;2024-02-04T04:42:08;1999.90;;;999.90;;
29236;SDS011;16266;50.866;4.398;2024-02-04T04:44:34;1999.90;;;999.90;;
29236;SDS011;16266;50.866;4.398;2024-02-04T04:47:00;1999.90;;;999.90;;
29236;SDS011;16266;50.866;4.398;2024-02-04T04:49:25;1999.90;;;999.90;;
29236;SDS011;16266;50.866;4.398;2024-02-04T04:51:52;1999.90;;;999.90;;
29236;SDS011;16266;50.866;4.398;2024-02-04T04:54:18;1999.90;;;999.90;;
29236;SDS011;16266;50.866;4.398;2024-02-04T04:56:43;1999.90;;;999.90;;
29236;SDS011;16266;50.866;4.398;2024-02-04T04:59:09;1999.90;;;999.90;;
29236;SDS011;16266;50.866;4.398;2024-02-04T05:01:35;1999.90;;;999.90;;
29236;SDS011;16266;50.866;4.398;2024-02-04T05:04:00;1999.90;;;999.90;;
29236;SDS011;16266;50.866;4.398;2024-02-04T05:06:26;1999.90;;;999.90;;
29236;SDS011;16266;50.866;4.398;2024-02-04T05:08:52;1999.90;;;999.90;;
29236;SDS011;16266;50.866;4.398;2024-02-04T05:11:19;1999.90;;;999.90;;
29236;SDS011;16266;50.866;4.398;2024-02-04T05:13:44;1999.90;;;999.90;;
29236;SDS011;16266;50.866;4.398;2024-02-04T05:16:10;1999.90;;;999.90;;
29236;SDS011;16266;50.866;4.398;2024-02-04T05:18:36;1999.90;;;999.90;;
29236;SDS011;16266;50.866;4.398;2024-02-04T05:21:02;1999.90;;;999.90;;
29236;SDS011;16266;50.866;4.398;2024-02-04T05:23:28;1999.90;;;999.90;;
29236;SDS011;16266;50.866;4.398;2024-02-04T05:25:54;1999.90;;;999.90;;
29236;SDS011;16266;50.866;4.398;2024-02-04T05:28:19;1999.90;;;999.90;;
29236;SDS011;16266;50.866;4.398;2024-02-04T05:30:45;1999.90;;;999.90;;
29236;SDS011;16266;50.866;4.398;2024-02-04T05:33:13;1999.90;;;999.90;;
29236;SDS011;16266;50.866;4.398;2024-02-04T05:35:39;1999.90;;;999.90;;
29236;SDS011;16266;50.866;4.398;2024-02-04T05:38:07;1999.90;;;999.90;;
29236;SDS011;16266;50.866;4.398;2024-02-04T05:40:33;1999.90;;;999.90;;
29236;SDS011;16266;50.866;4.398;2024-02-04T05:42:59;1999.90;;;999.90;;
29236;SDS011;16266;50.866;4.398;2024-02-04T05:45:30;1999.90;;;999.90;;
29236;SDS011;16266;50.866;4.398;2024-02-04T05:47:56;1999.90;;;999.90;;
29236;SDS011;16266;50.866;4.398;2024-02-04T05:50:22;1999.90;;;999.90;;
29236;SDS011;16266;50.866;4.398;2024-02-04T05:52:47;1999.90;;;999.90;;
29236;SDS011;16266;50.866;4.398;2024-02-04T05:55:14;1999.90;;;999.90;;
29236;SDS011;16266;50.866;4.398;2024-02-04T05:57:39;1999.90;;;999.90;;
29236;SDS011;16266;50.866;4.398;2024-02-04T06:00:06;1999.90;;;999.90;;
29236;SDS011;16266;50.866;4.398;2024-02-04T06:02:33;1999.90;;;999.90;;
29236;SDS011;16266;50.866;4.398;2024-02-04T06:04:58;1999.90;;;999.90;;
29236;SDS011;16266;50.866;4.398;2024-02-04T06:07:24;1999.90;;;999.90;;
29236;SDS011;16266;50.866;4.398;2024-02-04T06:09:49;1999.90;;;999.90;;
29236;SDS011;16266;50.866;4.398;2024-02-04T06:12:16;1999.90;;;999.90;;
29236;SDS011;16266;50.866;4.398;2024-02-04T06:14:42;1999.90;;;999.90;;
29236;SDS011;16266;50.866;4.398;2024-02-04T06:17:07;1999.90;;;999.90;;
29236;SDS011;16266;50.866;4.398;2024-02-04T06:19:36;1999.90;;;999.90;;
29236;SDS011;16266;50.866;4.398;2024-02-04T06:22:02;1999.90;;;999.90;;
29236;SDS011;16266;50.866;4.398;2024-02-04T06:24:27;1999.90;;;999.90;;
29236;SDS011;16266;50.866;4.398;2024-02-04T06:26:53;1999.90;;;999.90;;
29236;SDS011;16266;50.866;4.398;2024-02-04T06:29:19;1999.90;;;999.90;;
29236;SDS011;16266;50.866;4.398;2024-02-04T06:31:44;1999.90;;;999.90;;
29236;SDS011;16266;50.866;4.398;2024-02-04T06:34:11;1999.90;;;999.90;;
29236;SDS011;16266;50.866;4.398;2024-02-04T06:36:37;1999.90;;;999.90;;
29236;SDS011;16266;50.866;4.398;2024-02-04T06:39:02;1999.90;;;999.90;;
29236;SDS011;16266;50.866;4.398;2024-02-04T06:41:28;1999.90;;;999.90;;
29236;SDS011;16266;50.866;4.398;2024-02-04T06:43:54;1999.90;;;999.90;;
29236;SDS011;16266;50.866;4.398;2024-02-04T06:46:26;1999.90;;;999.90;;
29236;SDS011;16266;50.866;4.398;2024-02-04T06:48:53;1999.90;;;999.90;;
29236;SDS011;16266;50.866;4.398;2024-02-04T06:51:19;1999.90;;;999.90;;
29236;SDS011;16266;50.866;4.398;2024-02-04T06:53:45;1999.90;;;999.90;;
29236;SDS011;16266;50.866;4.398;2024-02-04T06:56:10;1999.90;;;999.90;;
29236;SDS011;16266;50.866;4.398;2024-02-04T06:58:39;1999.90;;;999.90;;
29236;SDS011;16266;50.866;4.398;2024-02-04T07:01:05;1999.90;;;999.90;;
29236;SDS011;16266;50.866;4.398;2024-02-04T07:03:31;1999.90;;;999.90;;
29236;SDS011;16266;50.866;4.398;2024-02-04T07:05:58;1999.90;;;999.90;;
29236;SDS011;16266;50.866;4.398;2024-02-04T07:08:24;1999.90;;;999.90;;
29236;SDS011;16266;50.866;4.398;2024-02-04T07:10:50;1999.90;;;999.90;;
29236;SDS011;16266;50.866;4.398;2024-02-04T07:13:16;1999.90;;;999.90;;
29236;SDS011;16266;50.866;4.398;2024-02-04T07:15:42;1999.90;;;999.90;;
29236;SDS011;16266;50.866;4.398;2024-02-04T07:18:09;1999.90;;;999.90;;
29236;SDS011;16266;50.866;4.398;2024-02-04T07:20:34;1999.90;;;999.90;;
29236;SDS011;16266;50.866;4.398;2024-02-04T07:23:00;1999.90;;;999.90;;
29236;SDS011;16266;50.866;4.398;2024-02-04T07:25:26;1999.90;;;999.90;;
29236;SDS011;16266;50.866;4.398;2024-02-04T07:27:52;1999.90;;;999.90;;
29236;SDS011;16266;50.866;4.398;2024-02-04T07:30:18;1999.90;;;999.90;;
29236;SDS011;16266;50.866;4.398;2024-02-04T07:32:45;1999.90;;;999.90;;
29236;SDS011;16266;50.866;4.398;2024-02-04T07:35:11;1999.90;;;999.90;;
29236;SDS011;16266;50.866;4.398;2024-02-04T07:37:37;1999.90;;;999.90;;
29236;SDS011;16266;50.866;4.398;2024-02-04T07:40:03;1999.90;;;999.90;;
29236;SDS011;16266;50.866;4.398;2024-02-04T07:42:32;1999.90;;;999.90;;
29236;SDS011;16266;50.866;4.398;2024-02-04T07:44:58;1999.90;;;999.90;;
29236;SDS011;16266;50.866;4.398;2024-02-04T07:47:23;1999.90;;;999.90;;
29236;SDS011;16266;50.866;4.398;2024-02-04T07:49:49;1999.90;;;999.90;;
29236;SDS011;16266;50.866;4.398;2024-02-04T07:52:16;1999.90;;;999.90;;
29236;SDS011;16266;50.866;4.398;2024-02-04T07:54:42;1999.90;;;999.90;;
29236;SDS011;16266;50.866;4.398;2024-02-04T07:57:11;1999.90;;;999.90;;
29236;SDS011;16266;50.866;4.398;2024-02-04T07:59:37;1999.90;;;999.90;;
29236;SDS011;16266;50.866;4.398;2024-02-04T08:02:02;1999.90;;;999.90;;
29236;SDS011;16266;50.866;4.398;2024-02-04T08:04:28;1999.90;;;999.90;;
29236;SDS011;16266;50.866;4.398;2024-02-04T08:06:54;1999.90;;;999.90;;
29236;SDS011;16266;50.866;4.398;2024-02-04T08:09:19;1999.90;;;999.90;;
29236;SDS011;16266;50.866;4.398;2024-02-04T08:11:45;1999.90;;;999.90;;
29236;SDS011;16266;50.866;4.398;2024-02-04T08:14:11;1999.90;;;999.90;;
29236;SDS011;16266;50.866;4.398;2024-02-04T08:16:39;1999.90;;;999.90;;
29236;SDS011;16266;50.866;4.398;2024-02-04T08:19:04;1999.90;;;999.90;;
29236;SDS011;16266;50.866;4.398;2024-02-04T08:21:31;1999.90;;;999.90;;
29236;SDS011;16266;50.866;4.398;2024-02-04T08:23:57;1999.90;;;999.90;;
29236;SDS011;16266;50.866;4.398;2024-02-04T08:26:23;1999.90;;;999.90;;
29236;SDS011;16266;50.866;4.398;2024-02-04T08:28:49;1999.90;;;999.90;;
29236;SDS011;16266;50.866;4.398;2024-02-04T08:31:15;1999.90;;;999.90;;
29236;SDS011;16266;50.866;4.398;2024-02-04T08:33:41;1999.90;;;999.90;;
29236;SDS011;16266;50.866;4.398;2024-02-04T08:36:07;1999.90;;;999.90;;
29236;SDS011;16266;50.866;4.398;2024-02-04T08:38:35;1999.90;;;999.90;;
29236;SDS011;16266;50.866;4.398;2024-02-04T08:41:01;1999.90;;;999.90;;
29236;SDS011;16266;50.866;4.398;2024-02-04T08:43:27;1999.90;;;999.90;;
29236;SDS011;16266;50.866;4.398;2024-02-04T08:45:53;1999.90;;;999.90;;
29236;SDS011;16266;50.866;4.398;2024-02-04T08:48:19;1999.90;;;999.90;;
29236;SDS011;16266;50.866;4.398;2024-02-04T08:50:44;1999.90;;;999.90;;
29236;SDS011;16266;50.866;4.398;2024-02-04T08:53:10;1999.90;;;999.90;;
29236;SDS011;16266;50.866;4.398;2024-02-04T08:55:36;1999.90;;;999.90;;
29236;SDS011;16266;50.866;4.398;2024-02-04T08:58:01;1999.90;;;999.90;;
29236;SDS011;16266;50.866;4.398;2024-02-04T09:00:27;1999.90;;;999.90;;
29236;SDS011;16266;50.866;4.398;2024-02-04T09:02:53;1999.90;;;999.90;;
29236;SDS011;16266;50.866;4.398;2024-02-04T09:05:18;1999.90;;;999.90;;
29236;SDS011;16266;50.866;4.398;2024-02-04T09:07:45;1999.90;;;999.90;;
29236;SDS011;16266;50.866;4.398;2024-02-04T09:10:11;1999.90;;;999.90;;
29236;SDS011;16266;50.866;4.398;2024-02-04T09:12:37;1999.90;;;999.90;;
29236;SDS011;16266;50.866;4.398;2024-02-04T09:15:03;1999.90;;;999.90;;
29236;SDS011;16266;50.866;4.398;2024-02-04T09:17:29;1999.90;;;999.90;;
29236;SDS011;16266;50.866;4.398;2024-02-04T09:19:58;1999.90;;;999.90;;
29236;SDS011;16266;50.866;4.398;2024-02-04T09:22:24;1999.90;;;999.90;;
29236;SDS011;16266;50.866;4.398;2024-02-04T09:24:49;1999.90;;;999.90;;
29236;SDS011;16266;50.866;4.398;2024-02-04T09:27:15;1999.90;;;999.90;;
29236;SDS011;16266;50.866;4.398;2024-02-04T09:29:41;1999.90;;;999.90;;
29236;SDS011;16266;50.866;4.398;2024-02-04T09:32:06;1999.90;;;999.90;;
29236;SDS011;16266;50.866;4.398;2024-02-04T09:34:32;1999.90;;;999.90;;
29236;SDS011;16266;50.866;4.398;2024-02-04T09:36:58;1999.90;;;999.90;;
29236;SDS011;16266;50.866;4.398;2024-02-04T09:39:24;1999.90;;;999.90;;
29236;SDS011;16266;50.866;4.398;2024-02-04T09:41:49;1999.90;;;999.90;;
29236;SDS011;16266;50.866;4.398;2024-02-04T09:44:16;1999.90;;;999.90;;
29236;SDS011;16266;50.866;4.398;2024-02-04T09:46:42;1999.90;;;999.90;;
29236;SDS011;16266;50.866;4.398;2024-02-04T09:49:08;1999.90;;;999.90;;
29236;SDS011;16266;50.866;4.398;2024-02-04T09:51:34;1999.90;;;999.90;;
29236;SDS011;16266;50.866;4.398;2024-02-04T09:54:02;1999.90;;;999.90;;
29236;SDS011;16266;50.866;4.398;2024-02-04T09:56:31;1999.90;;;999.90;;
29236;SDS011;16266;50.866;4.398;2024-02-04T09:58:58;1999.90;;;999.90;;
29236;SDS011;16266;50.866;4.398;2024-02-04T10:01:23;1999.90;;;999.90;;
29236;SDS011;16266;50.866;4.398;2024-02-04T10:03:51;1999.90;;;999.90;;
29236;SDS011;16266;50.866;4.398;2024-02-04T10:06:17;1999.90;;;999.90;;
29236;SDS011;16266;50.866;4.398;2024-02-04T10:08:42;1999.90;;;999.90;;
29236;SDS011;16266;50.866;4.398;2024-02-04T10:11:09;1999.90;;;999.90;;
29236;SDS011;16266;50.866;4.398;2024-02-04T10:13:47;1999.90;;;999.90;;
29236;SDS011;16266;50.866;4.398;2024-02-04T10:16:14;1999.90;;;999.90;;
29236;SDS011;16266;50.866;4.398;2024-02-04T10:18:41;1999.90;;;999.90;;
29236;SDS011;16266;50.866;4.398;2024-02-04T10:21:21;1999.90;;;999.90;;
29236;SDS011;16266;50.866;4.398;2024-02-04T10:26:14;1999.90;;;999.90;;
29236;SDS011;16266;50.866;4.398;2024-02-04T10:28:41;1999.90;;;999.90;;
29236;SDS011;16266;50.866;4.398;2024-02-04T10:31:09;1999.90;;;999.90;;
29236;SDS011;16266;50.866;4.398;2024-02-04T10:33:35;1999.90;;;999.90;;
29236;SDS011;16266;50.866;4.398;2024-02-04T10:36:01;1999.90;;;999.90;;
29236;SDS011;16266;50.866;4.398;2024-02-04T10:38:27;1999.90;;;999.90;;
29236;SDS011;16266;50.866;4.398;2024-02-04T10:40:53;611.92;;;357.42;;
29236;SDS011;16266;50.866;4.398;2024-02-04T10:43:22;1999.90;;;999.90;;
29236;SDS011;16266;50.866;4.398;2024-02-04T10:45:49;202.85;;;194.73;;
29236;SDS011;16266;50.866;4.398;2024-02-04T10:48:20;206.95;;;198.65;;
29236;SDS011;16266;50.866;4.398;2024-02-04T10:50:51;190.05;;;182.48;;
29236;SDS011;16266;50.866;4.398;2024-02-04T10:53:21;202.73;;;194.70;;
29236;SDS011;16266;50.866;4.398;2024-02-04T10:55:48;221.77;;;212.88;;
29236;SDS011;16266;50.866;4.398;2024-02-04T10:58:15;208.70;;;200.32;;
29236;SDS011;16266;50.866;4.398;2024-02-04T11:00:43;193.27;;;185.70;;
29236;SDS011;16266;50.866;4.398;2024-02-04T11:03:09;188.95;;;181.63;;
29236;SDS011;16266;50.866;4.398;2024-02-04T11:05:36;147.18;;;141.38;;
29236;SDS011;16266;50.866;4.398;2024-02-04T11:08:04;128.75;;;123.82;;
29236;SDS011;16266;50.866;4.398;2024-02-04T11:10:30;137.13;;;131.85;;
29236;SDS011;16266;50.866;4.398;2024-02-04T11:12:57;130.00;;;125.00;;
29236;SDS011;16266;50.866;4.398;2024-02-04T11:15:26;144.73;;;139.07;;
29236;SDS011;16266;50.866;4.398;2024-02-04T11:26:19;1999.90;;;999.90;;
29236;SDS011;16266;50.866;4.398;2024-02-04T11:28:46;1999.90;;;999.90;;
29236;SDS011;16266;50.866;4.398;2024-02-04T11:31:15;1999.90;;;999.90;;
29236;SDS011;16266;50.866;4.398;2024-02-04T11:33:42;1999.90;;;999.90;;
29236;SDS011;16266;50.866;4.398;2024-02-04T11:36:15;1999.90;;;999.90;;
29236;SDS011;16266;50.866;4.398;2024-02-04T11:38:43;1999.90;;;999.90;;
29236;SDS011;16266;50.866;4.398;2024-02-04T11:41:20;1999.90;;;999.90;;
29236;SDS011;16266;50.866;4.398;2024-02-04T11:43:51;1999.90;;;999.90;;
29236;SDS011;16266;50.866;4.398;2024-02-04T11:46:18;1999.90;;;999.90;;
29236;SDS011;16266;50.866;4.398;2024-02-04T11:48:51;1999.90;;;999.90;;
29236;SDS011;16266;50.866;4.398;2024-02-04T11:51:21;1999.90;;;999.90;;
29236;SDS011;16266;50.866;4.398;2024-02-04T11:56:14;1999.90;;;999.90;;
29236;SDS011;16266;50.866;4.398;2024-02-04T11:58:40;1999.90;;;999.90;;
29236;SDS011;16266;50.866;4.398;2024-02-04T12:01:09;1999.90;;;999.90;;
29236;SDS011;16266;50.866;4.398;2024-02-04T12:03:35;1999.90;;;999.90;;
29236;SDS011;16266;50.866;4.398;2024-02-04T12:06:02;1999.90;;;999.90;;
29236;SDS011;16266;50.866;4.398;2024-02-04T12:08:32;1999.90;;;999.90;;
29236;SDS011;16266;50.866;4.398;2024-02-04T12:10:59;1999.90;;;999.90;;
29236;SDS011;16266;50.866;4.398;2024-02-04T12:13:27;1999.90;;;999.90;;
29236;SDS011;16266;50.866;4.398;2024-02-04T12:15:53;1999.90;;;999.90;;
29236;SDS011;16266;50.866;4.398;2024-02-04T12:18:19;1999.90;;;999.90;;
29236;SDS011;16266;50.866;4.398;2024-02-04T12:20:46;1999.90;;;999.90;;
29236;SDS011;16266;50.866;4.398;2024-02-04T12:25:42;1999.90;;;999.90;;
29236;SDS011;16266;50.866;4.398;2024-02-04T12:28:08;1999.90;;;999.90;;
29236;SDS011;16266;50.866;4.398;2024-02-04T12:30:33;1999.90;;;999.90;;
29236;SDS011;16266;50.866;4.398;2024-02-04T12:33:00;1999.90;;;999.90;;
29236;SDS011;16266;50.866;4.398;2024-02-04T12:35:32;1999.90;;;999.90;;
29236;SDS011;16266;50.866;4.398;2024-02-04T12:37:58;1999.90;;;999.90;;
29236;SDS011;16266;50.866;4.398;2024-02-04T12:40:27;1999.90;;;999.90;;
29236;SDS011;16266;50.866;4.398;2024-02-04T12:43:00;1999.90;;;999.90;;
29236;SDS011;16266;50.866;4.398;2024-02-04T12:45:27;1999.90;;;999.90;;
29236;SDS011;16266;50.866;4.398;2024-02-04T12:47:53;1999.90;;;999.90;;
29236;SDS011;16266;50.866;4.398;2024-02-04T12:50:22;1999.90;;;999.90;;
29236;SDS011;16266;50.866;4.398;2024-02-04T12:55:47;1999.90;;;999.90;;
29236;SDS011;16266;50.866;4.398;2024-02-04T12:58:13;1999.90;;;999.90;;
29236;SDS011;16266;50.866;4.398;2024-02-04T13:00:42;1999.90;;;999.90;;
29236;SDS011;16266;50.866;4.398;2024-02-04T13:03:08;1999.90;;;999.90;;
29236;SDS011;16266;50.866;4.398;2024-02-04T13:05:34;1999.90;;;999.90;;
29236;SDS011;16266;50.866;4.398;2024-02-04T13:08:01;1999.90;;;999.90;;
29236;SDS011;16266;50.866;4.398;2024-02-04T13:10:28;1999.90;;;999.90;;
29236;SDS011;16266;50.866;4.398;2024-02-04T13:12:59;1999.90;;;999.90;;
29236;SDS011;16266;50.866;4.398;2024-02-04T13:15:26;1999.90;;;999.90;;
29236;SDS011;16266;50.866;4.398;2024-02-04T13:17:53;1999.90;;;999.90;;
29236;SDS011;16266;50.866;4.398;2024-02-04T13:20:19;1999.90;;;999.90;;
29236;SDS011;16266;50.866;4.398;2024-02-04T13:22:44;1999.90;;;999.90;;
29236;SDS011;16266;50.866;4.398;2024-02-04T13:25:10;1999.90;;;999.90;;
29236;SDS011;16266;50.866;4.398;2024-02-04T13:27:35;1999.90;;;999.90;;
29236;SDS011;16266;50.866;4.398;2024-02-04T13:30:01;1999.90;;;999.90;;
29236;SDS011;16266;50.866;4.398;2024-02-04T13:32:27;1999.90;;;999.90;;
29236;SDS011;16266;50.866;4.398;2024-02-04T13:34:52;1999.90;;;999.90;;
29236;SDS011;16266;50.866;4.398;2024-02-04T13:37:18;1999.90;;;999.90;;
29236;SDS011;16266;50.866;4.398;2024-02-04T13:39:44;1999.90;;;999.90;;
29236;SDS011;16266;50.866;4.398;2024-02-04T13:42:09;1999.90;;;999.90;;
29236;SDS011;16266;50.866;4.398;2024-02-04T13:44:35;1999.90;;;999.90;;
29236;SDS011;16266;50.866;4.398;2024-02-04T13:47:01;1999.90;;;999.90;;
29236;SDS011;16266;50.866;4.398;2024-02-04T13:49:26;1999.90;;;999.90;;
29236;SDS011;16266;50.866;4.398;2024-02-04T13:51:52;1999.90;;;999.90;;
29236;SDS011;16266;50.866;4.398;2024-02-04T13:54:18;1999.90;;;999.90;;
29236;SDS011;16266;50.866;4.398;2024-02-04T13:56:44;1999.90;;;999.90;;
29236;SDS011;16266;50.866;4.398;2024-02-04T13:59:11;1999.90;;;999.90;;
29236;SDS011;16266;50.866;4.398;2024-02-04T14:01:36;1999.90;;;999.90;;
29236;SDS011;16266;50.866;4.398;2024-02-04T14:04:02;1999.90;;;999.90;;
29236;SDS011;16266;50.866;4.398;2024-02-04T14:06:28;1999.90;;;999.90;;
29236;SDS011;16266;50.866;4.398;2024-02-04T14:08:53;1999.90;;;999.90;;